createdAt,value
2019-05-13T00:01:37.300Z,57.90
2019-05-13T00:04:07.345Z,58.20
2019-05-13T00:06:50.213Z,57.80
2019-05-13T00:09:09.498Z,57.50
2019-05-13T00:11:43.636Z,57.90
2019-05-13T00:14:13.548Z,58.10
2019-05-13T00:16:44.932Z,58.00
2019-05-13T00:19:16.150Z,57.70
2019-05-13T00:21:46.253Z,57.60
2019-05-13T00:24:16.295Z,57.70
2019-05-13T00:26:46.325Z,57.90
2019-05-13T00:29:16.437Z,57.90
2019-05-13T00:31:46.567Z,57.80
2019-05-13T00:34:16.627Z,58.20
2019-05-13T00:36:46.683Z,58.20
2019-05-13T00:39:17.033Z,58.00
2019-05-13T00:41:47.082Z,57.90
2019-05-13T00:44:17.122Z,57.60
2019-05-13T00:46:47.141Z,57.30
2019-05-13T00:49:17.223Z,58.00
2019-05-13T00:51:47.287Z,57.70
2019-05-13T00:54:17.413Z,57.60
2019-05-13T00:56:47.448Z,57.80
2019-05-13T00:59:18.164Z,57.80
2019-05-13T01:01:48.198Z,57.90
2019-05-13T01:04:18.227Z,57.90
2019-05-13T01:06:48.242Z,57.70
2019-05-13T01:09:18.355Z,57.70
2019-05-13T01:15:18.980Z,57.70
2019-05-13T01:17:49.410Z,57.90
2019-05-13T01:20:20.409Z,58.10
2019-05-13T01:22:50.449Z,58.20
2019-05-13T01:25:21.006Z,58.20
2019-05-13T01:27:53.602Z,58.10
2019-05-13T01:30:23.888Z,58.20
2019-05-13T01:32:54.139Z,58.00
2019-05-13T01:35:24.386Z,57.90
2019-05-13T01:37:54.434Z,57.90
2019-05-13T01:40:24.782Z,57.80
2019-05-13T01:42:54.818Z,57.80
2019-05-13T01:45:24.863Z,57.80
2019-05-13T01:47:54.904Z,57.70
2019-05-13T01:50:25.249Z,57.80
2019-05-13T01:52:56.364Z,57.70
2019-05-13T01:55:26.705Z,57.70
2019-05-13T01:57:56.740Z,57.90
2019-05-13T02:00:26.775Z,57.90
2019-05-13T02:02:56.903Z,57.90
2019-05-13T02:05:27.835Z,57.90
2019-05-13T02:08:00.678Z,57.80
2019-05-13T02:10:47.189Z,57.90
2019-05-13T02:13:17.205Z,58.00
2019-05-13T02:15:47.245Z,58.00
2019-05-13T02:18:17.285Z,58.00
2019-05-13T02:20:47.573Z,58.00
2019-05-13T02:23:18.296Z,57.90
2019-05-13T02:25:48.417Z,58.00
2019-05-13T02:28:18.526Z,58.00
2019-05-13T02:30:48.644Z,57.70
2019-05-13T02:33:18.746Z,58.50
2019-05-13T02:35:52.686Z,58.40
2019-05-13T02:38:26.342Z,58.20
2019-05-13T02:40:52.992Z,58.10
2019-05-13T02:43:24.363Z,58.00
2019-05-13T02:45:54.845Z,57.80
2019-05-13T02:48:24.881Z,57.70
2019-05-13T02:50:54.990Z,57.90
2019-05-13T02:53:25.044Z,58.00
2019-05-13T02:55:55.085Z,58.00
2019-05-13T02:58:25.636Z,57.80
2019-05-13T03:00:55.821Z,58.20
2019-05-13T03:03:25.849Z,57.90
2019-05-13T03:05:55.890Z,58.30
2019-05-13T03:08:39.854Z,58.20
2019-05-13T03:10:58.038Z,58.10
2019-05-13T03:13:28.083Z,58.20
2019-05-13T03:16:17.143Z,58.20
2019-05-13T03:18:47.255Z,58.10
2019-05-13T03:21:17.386Z,57.80
2019-05-13T03:23:47.409Z,57.80
2019-05-13T03:26:17.836Z,57.70
2019-05-13T03:28:52.166Z,57.70
2019-05-13T03:31:25.618Z,57.70
2019-05-13T03:33:55.943Z,57.60
2019-05-13T03:36:26.086Z,57.70
2019-05-13T03:39:05.585Z,57.80
2019-05-13T03:41:33.056Z,57.90
2019-05-13T03:44:06.309Z,58.00
2019-05-13T03:46:42.307Z,57.70
2019-05-13T03:49:13.679Z,57.60
2019-05-13T03:51:44.067Z,57.50
2019-05-13T03:54:15.413Z,57.90
2019-05-13T03:56:46.267Z,58.20
2019-05-13T03:59:16.340Z,58.00
2019-05-13T04:01:46.500Z,58.00
2019-05-13T04:04:16.731Z,58.00
2019-05-13T04:06:46.767Z,57.90
2019-05-13T04:09:25.498Z,58.40
2019-05-13T04:11:52.332Z,58.30
2019-05-13T04:14:22.919Z,58.40
2019-05-13T04:16:53.325Z,58.30
2019-05-13T04:19:23.884Z,58.40
2019-05-13T04:21:54.888Z,58.30
2019-05-13T04:24:25.327Z,58.20
2019-05-13T04:26:55.703Z,58.20
2019-05-13T04:29:25.815Z,58.00
2019-05-13T04:31:55.871Z,58.30
2019-05-13T04:34:25.911Z,58.50
2019-05-13T04:36:55.980Z,58.40
2019-05-13T04:39:40.301Z,58.50
2019-05-13T04:41:57.801Z,58.80
2019-05-13T04:44:28.519Z,58.90
2019-05-13T04:46:58.621Z,59.00
2019-05-13T04:49:28.655Z,58.70
2019-05-13T04:51:58.755Z,58.30
2019-05-13T04:54:28.798Z,58.60
2019-05-13T04:56:58.859Z,58.80
2019-05-13T04:59:28.911Z,59.10
2019-05-13T05:02:43.263Z,59.30
2019-05-13T05:05:22.572Z,59.20
2019-05-13T05:08:16.226Z,59.40
2019-05-13T05:11:08.155Z,59.30
2019-05-13T05:14:22.252Z,59.00
2019-05-13T05:17:23.872Z,59.60
2019-05-13T05:20:14.560Z,59.80
2019-05-13T05:23:15.584Z,59.80
2019-05-13T05:26:35.769Z,59.80
2019-05-13T05:29:22.962Z,59.80
2019-05-13T05:32:23.561Z,60.00
2019-05-13T05:35:43.731Z,59.80
2019-05-13T05:38:45.987Z,59.60
2019-05-13T05:41:21.464Z,59.60
2019-05-13T05:43:53.931Z,59.20
2019-05-13T05:46:24.966Z,59.40
2019-05-13T05:48:56.221Z,59.30
2019-05-13T05:51:27.877Z,58.70
2019-05-13T05:54:02.464Z,59.00
2019-05-13T05:56:33.789Z,58.60
2019-05-13T05:59:04.351Z,57.90
2019-05-13T06:01:37.347Z,58.10
2019-05-13T06:04:07.005Z,57.90
2019-05-13T06:06:38.661Z,58.00
2019-05-13T06:09:12.176Z,57.90
2019-05-13T06:11:42.690Z,57.30
2019-05-13T06:14:13.343Z,57.20
2019-05-13T06:16:44.323Z,57.10
2019-05-13T06:19:17.723Z,56.80
2019-05-13T06:21:47.030Z,57.20
2019-05-13T06:24:17.090Z,56.70
2019-05-13T06:26:47.931Z,56.90
2019-05-13T06:29:18.093Z,56.00
2019-05-13T06:31:48.139Z,55.60
2019-05-13T06:34:18.221Z,55.20
2019-05-13T06:36:48.434Z,55.20
2019-05-13T06:39:18.584Z,55.20
2019-05-13T06:41:48.863Z,54.30
2019-05-13T06:44:21.257Z,53.80
2019-05-13T06:46:52.373Z,54.10
2019-05-13T06:49:22.513Z,54.40
2019-05-13T06:51:52.929Z,54.60
2019-05-13T06:54:23.154Z,55.00
2019-05-13T06:56:53.179Z,55.00
2019-05-13T06:59:23.285Z,55.10
2019-05-13T07:01:53.383Z,54.60
2019-05-13T07:04:23.855Z,54.70
2019-05-13T07:07:08.940Z,55.40
2019-05-13T07:09:26.448Z,55.50
2019-05-13T07:11:57.122Z,53.00
2019-05-13T07:14:27.382Z,52.50
2019-05-13T07:16:57.441Z,53.20
2019-05-13T07:19:27.546Z,53.40
2019-05-13T07:21:57.700Z,51.30
2019-05-13T07:24:27.710Z,52.10
2019-05-13T07:26:58.511Z,52.60
2019-05-13T07:29:32.130Z,52.50
2019-05-13T07:32:01.992Z,51.80
2019-05-13T07:34:33.907Z,52.20
2019-05-13T07:37:04.279Z,51.90
2019-05-13T07:39:36.015Z,52.00
2019-05-13T07:42:06.198Z,52.50
2019-05-13T07:44:36.840Z,52.40
2019-05-13T07:47:06.882Z,52.90
2019-05-13T07:49:36.902Z,52.70
2019-05-13T07:52:06.964Z,52.00
2019-05-13T07:54:37.068Z,52.20
2019-05-13T07:57:07.948Z,51.80
2019-05-13T07:59:38.024Z,52.10
2019-05-13T08:02:08.137Z,52.30
2019-05-13T08:04:38.176Z,52.30
2019-05-13T08:07:08.309Z,51.70
2019-05-13T08:09:38.325Z,51.50
2019-05-13T08:12:11.008Z,51.20
2019-05-13T08:14:43.332Z,51.20
2019-05-13T08:17:12.712Z,50.50
2019-05-13T08:19:43.961Z,50.40
2019-05-13T08:22:14.020Z,50.30
2019-05-13T08:24:44.057Z,50.40
2019-05-13T08:27:14.188Z,50.90
2019-05-13T08:29:44.382Z,49.70
2019-05-13T08:32:14.547Z,49.20
2019-05-13T08:34:44.590Z,49.40
2019-05-13T08:37:15.662Z,50.00
2019-05-13T08:39:45.714Z,49.30
2019-05-13T08:42:19.797Z,49.50
2019-05-13T08:44:48.693Z,49.00
2019-05-13T08:47:18.748Z,48.80
2019-05-13T08:49:48.783Z,49.10
2019-05-13T08:52:19.238Z,49.20
2019-05-13T08:54:52.199Z,49.60
2019-05-13T08:57:22.141Z,49.70
2019-05-13T08:59:53.064Z,49.40
2019-05-13T09:02:23.191Z,50.10
2019-05-13T09:04:53.251Z,50.10
2019-05-13T09:07:24.473Z,49.70
2019-05-13T09:09:55.100Z,49.50
2019-05-13T09:12:32.128Z,49.00
2019-05-13T09:14:56.898Z,49.00
2019-05-13T09:17:26.994Z,48.90
2019-05-13T09:19:57.104Z,48.30
2019-05-13T09:22:28.326Z,48.00
2019-05-13T09:24:58.447Z,47.50
2019-05-13T09:27:28.486Z,47.90
2019-05-13T09:29:58.528Z,48.30
2019-05-13T09:32:28.560Z,48.30
2019-05-13T09:35:11.988Z,51.50
2019-05-13T09:37:42.577Z,49.50
2019-05-13T09:40:13.258Z,47.10
2019-05-13T09:42:49.180Z,47.30
2019-05-13T09:45:16.288Z,47.00
2019-05-13T09:47:46.322Z,46.80
2019-05-13T09:50:28.561Z,46.80
2019-05-13T09:52:51.235Z,46.80
2019-05-13T09:55:28.477Z,47.20
2019-05-13T09:57:53.179Z,44.90
2019-05-13T10:00:23.214Z,44.90
2019-05-13T10:02:53.951Z,44.80
2019-05-13T10:05:27.245Z,45.40
2019-05-13T10:07:57.385Z,43.90
2019-05-13T10:10:27.410Z,42.60
2019-05-13T10:13:09.236Z,41.80
2019-05-13T10:15:32.578Z,41.10
2019-05-13T10:18:03.472Z,40.60
2019-05-13T10:20:47.316Z,40.50
2019-05-13T10:23:18.015Z,41.90
2019-05-13T10:25:52.166Z,40.90
2019-05-13T10:28:23.967Z,42.00
2019-05-13T10:30:54.626Z,42.50
2019-05-13T10:33:25.056Z,42.80
2019-05-13T10:35:56.582Z,42.70
2019-05-13T10:38:27.875Z,41.80
2019-05-13T10:41:02.788Z,41.90
2019-05-13T10:43:32.331Z,41.10
2019-05-13T10:46:03.590Z,40.60
2019-05-13T10:48:33.631Z,40.70
2019-05-13T10:51:03.681Z,43.20
2019-05-13T10:53:33.980Z,43.40
2019-05-13T10:56:05.517Z,40.90
2019-05-13T10:58:35.635Z,39.70
2019-05-13T11:01:06.063Z,39.80
2019-05-13T11:03:36.083Z,39.00
2019-05-13T11:06:06.543Z,39.40
2019-05-13T11:08:36.568Z,39.60
2019-05-13T11:11:07.050Z,39.40
2019-05-13T11:13:53.338Z,39.10
2019-05-13T11:16:12.196Z,38.40
2019-05-13T11:18:42.222Z,37.90
2019-05-13T11:21:13.175Z,38.70
2019-05-13T11:23:43.660Z,39.00
2019-05-13T11:26:13.800Z,36.50
2019-05-13T11:28:43.996Z,36.50
2019-05-13T11:31:14.217Z,35.70
2019-05-13T11:33:44.315Z,35.40
2019-05-13T11:36:18.929Z,36.20
2019-05-13T11:38:46.922Z,36.40
2019-05-13T11:41:17.194Z,37.00
2019-05-13T11:44:08.172Z,36.80
2019-05-13T11:46:21.967Z,38.10
2019-05-13T11:48:52.070Z,38.40
2019-05-13T11:51:24.089Z,36.80
2019-05-13T11:53:54.856Z,36.30
2019-05-13T11:56:25.801Z,37.50
2019-05-13T11:58:55.932Z,37.40
2019-05-13T12:01:26.259Z,36.90
2019-05-13T12:03:56.498Z,36.00
2019-05-13T12:06:26.615Z,35.80
2019-05-13T12:08:57.822Z,36.00
2019-05-13T12:11:28.144Z,35.00
2019-05-13T12:13:58.679Z,35.10
2019-05-13T12:16:28.705Z,35.40
2019-05-13T12:18:58.983Z,35.70
2019-05-13T12:21:29.510Z,35.40
2019-05-13T12:24:07.229Z,35.30
2019-05-13T12:26:33.308Z,35.80
2019-05-13T12:29:03.567Z,35.40
2019-05-13T12:31:33.878Z,36.00
2019-05-13T12:34:04.624Z,37.40
2019-05-13T12:36:35.038Z,36.90
2019-05-13T12:39:07.076Z,36.60
2019-05-13T12:41:37.191Z,37.00
2019-05-13T12:44:07.437Z,36.80
2019-05-13T12:46:37.483Z,36.90
2019-05-13T12:49:07.621Z,37.40
2019-05-13T12:51:37.670Z,37.50
2019-05-13T12:54:08.252Z,36.70
2019-05-13T12:56:38.883Z,36.20
2019-05-13T12:59:12.887Z,36.40
2019-05-13T13:01:41.548Z,36.30
2019-05-13T13:04:12.580Z,37.00
2019-05-13T13:06:45.473Z,36.80
2019-05-13T13:09:15.211Z,36.90
2019-05-13T13:11:45.413Z,37.60
2019-05-13T13:14:16.953Z,36.70
2019-05-13T13:16:47.610Z,36.90
2019-05-13T13:19:17.682Z,35.90
2019-05-13T13:21:47.731Z,36.10
2019-05-13T13:24:17.793Z,36.60
2019-05-13T13:26:47.924Z,35.70
2019-05-13T13:29:18.136Z,35.60
2019-05-13T13:31:48.312Z,34.20
2019-05-13T13:34:18.968Z,34.20
2019-05-13T13:36:50.131Z,35.00
2019-05-13T13:39:25.454Z,34.00
2019-05-13T13:41:53.754Z,35.70
2019-05-13T13:44:25.164Z,36.40
2019-05-13T13:46:55.927Z,37.30
2019-05-13T13:49:25.957Z,35.70
2019-05-13T13:51:56.004Z,35.50
2019-05-13T13:54:27.275Z,35.30
2019-05-13T13:56:57.723Z,35.00
2019-05-13T13:59:27.780Z,35.70
2019-05-13T14:01:57.958Z,34.40
2019-05-13T14:04:28.081Z,34.20
2019-05-13T14:09:30.075Z,33.90
2019-05-13T14:12:02.001Z,33.90
2019-05-13T14:14:32.372Z,34.80
2019-05-13T14:17:02.581Z,34.20
2019-05-13T14:19:33.823Z,34.10
2019-05-13T14:22:04.181Z,34.40
2019-05-13T14:24:34.336Z,34.90
2019-05-13T14:27:04.441Z,34.50
2019-05-13T14:29:40.490Z,33.90
2019-05-13T14:32:06.711Z,33.50
2019-05-13T14:34:36.775Z,33.20
2019-05-13T14:37:07.286Z,32.10
2019-05-13T14:39:37.343Z,32.50
2019-05-13T14:42:08.061Z,31.90
2019-05-13T14:44:38.175Z,31.80
2019-05-13T14:47:08.603Z,31.00
2019-05-13T14:49:39.109Z,31.70
2019-05-13T14:52:11.263Z,31.50
2019-05-13T14:54:42.033Z,31.80
2019-05-13T14:57:15.010Z,31.90
2019-05-13T14:59:45.539Z,32.30
2019-05-13T15:02:15.586Z,31.20
2019-05-13T15:04:45.711Z,31.30
2019-05-13T15:07:16.111Z,31.50
2019-05-13T15:09:46.164Z,30.10
2019-05-13T15:12:16.377Z,29.20
2019-05-13T15:14:47.181Z,30.20
2019-05-13T15:17:17.339Z,30.90
2019-05-13T15:19:47.651Z,31.60
2019-05-13T15:22:17.787Z,31.80
2019-05-13T15:24:48.018Z,31.40
2019-05-13T15:27:22.009Z,30.30
2019-05-13T15:29:51.608Z,29.70
2019-05-13T15:32:22.516Z,31.50
2019-05-13T15:34:52.627Z,31.10
2019-05-13T15:37:22.853Z,30.10
2019-05-13T15:39:52.879Z,30.20
2019-05-13T15:42:23.385Z,29.70
2019-05-13T15:44:53.539Z,30.10
2019-05-13T15:47:26.799Z,29.50
2019-05-13T15:49:55.992Z,30.30
2019-05-13T15:52:26.426Z,31.30
2019-05-13T15:54:56.925Z,31.00
2019-05-13T15:57:27.078Z,31.10
2019-05-13T16:03:32.485Z,30.80
2019-05-13T16:06:02.627Z,30.50
2019-05-13T16:08:32.781Z,30.20
2019-05-13T16:11:02.940Z,28.10
2019-05-13T16:13:33.192Z,28.40
2019-05-13T16:16:03.581Z,28.00
2019-05-13T16:18:33.659Z,27.70
2019-05-13T16:21:03.786Z,28.50
2019-05-13T16:23:33.933Z,29.30
2019-05-13T16:26:04.138Z,29.60
2019-05-13T16:28:34.267Z,30.10
2019-05-13T16:31:04.329Z,30.10
2019-05-13T16:33:34.387Z,29.20
2019-05-13T16:36:05.756Z,29.30
2019-05-13T16:38:36.423Z,29.30
2019-05-13T16:41:06.557Z,29.40
2019-05-13T16:43:37.002Z,28.40
2019-05-13T16:46:07.381Z,29.20
2019-05-13T16:48:37.718Z,29.80
2019-05-13T16:51:07.771Z,29.50
2019-05-13T16:53:37.812Z,30.00
2019-05-13T16:56:07.883Z,30.50
2019-05-13T16:58:37.991Z,31.60
2019-05-13T17:01:08.056Z,31.20
2019-05-13T17:03:38.088Z,30.50
2019-05-13T17:06:08.176Z,30.80
2019-05-13T17:08:38.777Z,31.10
2019-05-13T17:11:11.560Z,31.60
2019-05-13T17:13:42.142Z,30.90
2019-05-13T17:16:12.849Z,32.30
2019-05-13T17:18:42.917Z,32.30
2019-05-13T17:21:12.981Z,31.80
2019-05-13T17:23:43.011Z,31.70
2019-05-13T17:26:13.742Z,31.60
2019-05-13T17:28:43.956Z,31.90
2019-05-13T17:31:14.010Z,31.70
2019-05-13T17:33:44.122Z,32.70
2019-05-13T17:36:15.762Z,31.20
2019-05-13T17:38:45.888Z,29.40
2019-05-13T17:41:16.095Z,28.70
2019-05-13T17:43:46.340Z,29.00
2019-05-13T17:46:16.717Z,29.50
2019-05-13T17:48:47.274Z,29.10
2019-05-13T17:51:18.107Z,29.50
2019-05-13T17:53:48.232Z,29.70
2019-05-13T17:56:18.408Z,30.20
2019-05-13T17:58:48.522Z,30.80
2019-05-13T18:01:21.093Z,31.50
2019-05-13T18:03:51.782Z,31.10
2019-05-13T18:06:22.288Z,31.30
2019-05-13T18:08:52.365Z,32.40
2019-05-13T18:11:22.886Z,33.40
2019-05-13T18:13:52.989Z,34.50
2019-05-13T18:16:23.346Z,34.60
2019-05-13T18:18:53.502Z,35.30
2019-05-13T18:21:23.645Z,34.70
2019-05-13T18:23:53.736Z,35.20
2019-05-13T18:26:23.847Z,35.80
2019-05-13T18:28:54.405Z,36.00
2019-05-13T18:31:25.067Z,36.10
2019-05-13T18:33:55.450Z,36.90
2019-05-13T18:36:26.752Z,36.60
2019-05-13T18:38:56.873Z,36.60
2019-05-13T18:41:26.935Z,36.60
2019-05-13T18:43:57.460Z,36.40
2019-05-13T18:46:27.488Z,36.30
2019-05-13T18:48:59.222Z,36.10
2019-05-13T18:51:31.593Z,36.10
2019-05-13T18:54:01.800Z,37.50
2019-05-13T18:56:32.233Z,37.00
2019-05-13T18:59:02.763Z,37.30
2019-05-13T19:01:33.954Z,38.00
2019-05-13T19:04:04.065Z,37.70
2019-05-13T19:06:34.320Z,37.80
2019-05-13T19:09:06.092Z,37.00
2019-05-13T19:11:36.421Z,36.90
2019-05-13T19:14:08.221Z,37.60
2019-05-13T19:16:38.270Z,37.90
2019-05-13T19:19:13.436Z,37.20
2019-05-13T19:21:41.675Z,37.70
2019-05-13T19:24:13.336Z,37.50
2019-05-13T19:26:43.755Z,37.60
2019-05-13T19:29:14.361Z,37.90
2019-05-13T19:31:44.469Z,37.80
2019-05-13T19:34:15.033Z,38.80
2019-05-13T19:36:45.212Z,39.10
2019-05-13T19:39:15.445Z,38.60
2019-05-13T19:41:45.632Z,39.50
2019-05-13T19:44:15.839Z,39.10
2019-05-13T19:46:47.091Z,38.60
2019-05-13T19:49:29.753Z,38.60
2019-05-13T19:51:51.973Z,39.20
2019-05-13T19:54:22.255Z,38.50
2019-05-13T19:56:52.521Z,39.20
2019-05-13T19:59:22.655Z,38.40
2019-05-13T20:01:52.879Z,38.70
2019-05-13T20:04:23.015Z,39.40
2019-05-13T20:06:53.429Z,39.30
2019-05-13T20:09:23.672Z,39.90
2019-05-13T20:11:55.421Z,40.30
2019-05-13T20:14:26.161Z,40.20
2019-05-13T20:16:58.572Z,40.30
2019-05-13T20:19:45.710Z,41.10
2019-05-13T20:22:02.691Z,41.10
2019-05-13T20:24:33.650Z,42.30
2019-05-13T20:27:04.021Z,41.60
2019-05-13T20:29:34.610Z,40.80
2019-05-13T20:32:05.700Z,40.60
2019-05-13T20:34:36.148Z,41.20
2019-05-13T20:37:06.242Z,41.70
2019-05-13T20:39:36.380Z,40.30
2019-05-13T20:42:06.854Z,39.20
2019-05-13T20:44:37.005Z,38.50
2019-05-13T20:47:07.093Z,37.60
2019-05-13T20:49:37.305Z,37.40
2019-05-13T20:52:07.928Z,36.30
2019-05-13T20:54:38.345Z,35.90
2019-05-13T20:57:08.524Z,35.00
2019-05-13T20:59:41.191Z,34.70
2019-05-13T21:02:12.420Z,34.40
2019-05-13T21:04:42.430Z,34.70
2019-05-13T21:07:12.593Z,34.60
2019-05-13T21:09:42.788Z,34.50
2019-05-13T21:12:12.924Z,34.50
2019-05-13T21:14:43.013Z,33.90
2019-05-13T21:17:13.536Z,33.50
2019-05-13T21:19:44.381Z,33.30
2019-05-13T21:22:14.660Z,32.90
2019-05-13T21:24:44.742Z,32.90
2019-05-13T21:27:14.786Z,32.60
2019-05-13T21:29:44.816Z,32.80
2019-05-13T21:32:17.593Z,32.60
2019-05-13T21:34:46.996Z,32.60
2019-05-13T21:37:17.105Z,32.30
2019-05-13T21:39:47.196Z,32.40
2019-05-13T21:42:17.343Z,32.70
2019-05-13T21:44:47.510Z,33.10
2019-05-13T21:47:17.568Z,32.80
2019-05-13T21:49:47.605Z,33.00
2019-05-13T21:52:17.713Z,32.60
2019-05-13T21:54:48.133Z,32.10
2019-05-13T21:57:18.470Z,32.00
2019-05-13T21:59:51.450Z,32.30
2019-05-13T22:02:23.245Z,32.50
2019-05-13T22:04:52.963Z,32.10
2019-05-13T22:07:23.124Z,32.40
2019-05-13T22:09:53.243Z,32.80
2019-05-13T22:12:23.371Z,33.00
2019-05-13T22:14:54.609Z,32.70
2019-05-13T22:17:24.723Z,32.80
2019-05-13T22:19:54.813Z,33.00
2019-05-13T22:22:24.939Z,33.10
2019-05-13T22:24:55.544Z,33.10
2019-05-13T22:27:25.654Z,32.80
2019-05-13T22:29:55.705Z,32.80
2019-05-13T22:32:25.740Z,33.30
2019-05-13T22:34:55.748Z,34.00
2019-05-13T22:37:26.065Z,33.40
2019-05-13T22:39:56.141Z,33.60
2019-05-13T22:42:26.199Z,33.50
2019-05-13T22:44:56.369Z,33.60
2019-05-13T22:47:26.513Z,33.60
2019-05-13T22:49:56.966Z,33.90
2019-05-13T22:52:27.135Z,33.90
2019-05-13T22:54:57.196Z,33.50
2019-05-13T22:57:27.238Z,34.60
2019-05-13T22:59:57.284Z,34.20
2019-05-13T23:02:27.308Z,34.30
2019-05-13T23:04:57.501Z,34.10
2019-05-13T23:07:27.565Z,34.80
2019-05-13T23:09:57.609Z,34.30
2019-05-13T23:12:27.761Z,34.30
2019-05-13T23:14:57.819Z,34.70
2019-05-13T23:17:27.863Z,35.40
2019-05-13T23:19:57.866Z,35.10
2019-05-13T23:22:28.333Z,34.10
2019-05-13T23:24:58.449Z,34.70
2019-05-13T23:27:28.503Z,35.20
2019-05-13T23:30:00.985Z,35.40
2019-05-13T23:32:32.030Z,35.70
2019-05-13T23:35:02.613Z,35.90
2019-05-13T23:37:32.933Z,35.70
2019-05-13T23:40:03.667Z,35.80
2019-05-13T23:42:33.711Z,35.50
2019-05-13T23:45:03.785Z,35.60
2019-05-13T23:47:34.123Z,36.00
2019-05-13T23:50:06.046Z,35.90
2019-05-13T23:52:36.400Z,36.30
2019-05-13T23:55:06.840Z,36.40
2019-05-13T23:57:37.929Z,36.20
